createdAt,value
2022-08-08T00:00:54.388Z,83.44
2022-08-08T00:03:28.334Z,83.69
2022-08-08T00:06:10.089Z,83.71
2022-08-08T00:09:01.008Z,83.48
2022-08-08T00:11:47.133Z,83.40
2022-08-08T00:15:04.861Z,83.38
2022-08-08T00:18:02.360Z,83.69
2022-08-08T00:20:40.560Z,83.90
2022-08-08T00:23:23.110Z,83.79
2022-08-08T00:26:04.588Z,83.82
2022-08-08T00:28:53.620Z,84.02
2022-08-08T00:32:21.474Z,83.84
2022-08-08T00:35:08.854Z,83.95
2022-08-08T00:38:05.222Z,83.94
2022-08-08T00:41:14.330Z,83.94
2022-08-08T00:43:45.934Z,83.79
2022-08-08T00:46:58.813Z,84.09
2022-08-08T00:49:59.336Z,84.14
2022-08-08T00:53:20.248Z,84.08
2022-08-08T00:55:54.779Z,84.13
2022-08-08T00:58:54.492Z,84.30
2022-08-08T01:01:37.732Z,83.98
2022-08-08T01:04:20.279Z,84.33
2022-08-08T01:07:16.195Z,84.07
2022-08-08T01:10:21.069Z,83.88
2022-08-08T01:13:43.546Z,83.98
2022-08-08T01:16:28.018Z,84.03
2022-08-08T01:19:42.384Z,84.21
2022-08-08T01:22:35.766Z,84.32
2022-08-08T01:25:14.337Z,84.41
2022-08-08T01:28:03.029Z,84.49
2022-08-08T01:30:53.487Z,84.42
2022-08-08T01:33:54.408Z,84.46
2022-08-08T01:37:02.568Z,84.22
2022-08-08T01:39:42.214Z,84.01
2022-08-08T01:42:48.857Z,83.67
2022-08-08T01:45:56.239Z,83.25
2022-08-08T01:48:54.665Z,83.05
2022-08-08T01:56:25.898Z,82.40
2022-08-08T01:58:50.760Z,81.83
2022-08-08T02:01:28.178Z,81.66
2022-08-08T02:04:39.287Z,81.93
2022-08-08T02:07:49.714Z,82.14
2022-08-08T02:10:45.209Z,81.89
2022-08-08T02:13:52.844Z,81.83
2022-08-08T02:16:42.726Z,81.75
2022-08-08T02:20:07.777Z,81.69
2022-08-08T02:22:33.989Z,81.34
2022-08-08T02:25:48.483Z,81.46
2022-08-08T02:28:41.515Z,81.36
2022-08-08T02:31:57.962Z,81.29
2022-08-08T02:35:08.429Z,81.39
2022-08-08T02:37:53.257Z,81.32
2022-08-08T02:40:39.348Z,81.28
2022-08-08T02:44:36.997Z,81.32
2022-08-08T02:46:29.822Z,81.43
2022-08-08T02:49:13.344Z,81.44
2022-08-08T02:52:34.741Z,81.45
2022-08-08T02:55:22.218Z,81.51
2022-08-08T02:58:15.145Z,81.48
2022-08-08T03:01:16.620Z,81.53
2022-08-08T03:05:02.555Z,81.45
2022-08-08T03:07:41.231Z,81.38
2022-08-08T03:10:53.838Z,81.54
2022-08-08T03:16:00.169Z,81.46
2022-08-08T03:16:52.617Z,81.57
2022-08-08T03:19:25.976Z,81.54
2022-08-08T03:21:59.727Z,81.59
2022-08-08T03:24:28.832Z,81.60
2022-08-08T03:27:14.139Z,81.63
2022-08-08T03:29:56.200Z,81.56
2022-08-08T03:32:53.357Z,81.49
2022-08-08T03:35:30.121Z,81.70
2022-08-08T03:38:56.269Z,81.51
2022-08-08T03:40:53.621Z,81.55
2022-08-08T03:43:23.051Z,81.49
2022-08-08T03:46:04.750Z,81.53
2022-08-08T03:49:26.647Z,81.58
2022-08-08T03:51:40.122Z,81.84
2022-08-08T03:54:41.743Z,81.61
2022-08-08T03:58:09.512Z,81.61
2022-08-08T03:59:59.537Z,81.35
2022-08-08T04:02:52.197Z,81.52
2022-08-08T04:05:28.005Z,81.34
2022-08-08T04:08:14.493Z,81.45
2022-08-08T04:11:11.486Z,81.22
2022-08-08T04:14:03.083Z,80.95
2022-08-08T04:16:38.580Z,80.98
2022-08-08T04:19:23.950Z,81.37
2022-08-08T04:21:54.696Z,81.41
2022-08-08T04:24:28.507Z,81.25
2022-08-08T04:26:58.745Z,81.46
2022-08-08T04:29:36.980Z,81.46
2022-08-08T04:32:07.726Z,81.45
2022-08-08T04:34:49.244Z,81.35
2022-08-08T04:37:32.333Z,81.54
2022-08-08T04:40:06.772Z,81.80
2022-08-08T04:42:37.473Z,81.57
2022-08-08T04:45:16.729Z,81.63
2022-08-08T04:47:46.342Z,81.23
2022-08-08T04:50:24.853Z,81.18
2022-08-08T04:53:04.690Z,81.21
2022-08-08T04:55:47.589Z,81.13
2022-08-08T04:58:23.549Z,80.98
2022-08-08T05:00:52.182Z,81.00
2022-08-08T05:04:11.202Z,81.22
2022-08-08T05:06:13.347Z,81.40
2022-08-08T05:08:51.613Z,81.34
2022-08-08T05:11:23.099Z,81.15
2022-08-08T05:13:58.216Z,81.12
2022-08-08T05:16:54.722Z,81.12
2022-08-08T05:20:09.036Z,80.58
2022-08-08T05:22:29.667Z,80.97
2022-08-08T05:24:58.267Z,81.04
2022-08-08T05:27:26.263Z,81.03
2022-08-08T05:29:54.948Z,80.96
2022-08-08T05:32:27.243Z,80.74
2022-08-08T05:35:05.251Z,80.75
2022-08-08T05:37:53.182Z,80.56
2022-08-08T05:40:27.975Z,80.71
2022-08-08T05:43:38.170Z,80.74
2022-08-08T05:46:08.096Z,80.49
2022-08-08T05:48:38.265Z,80.43
2022-08-08T05:51:15.285Z,80.48
2022-08-08T05:54:26.106Z,80.43
2022-08-08T05:56:41.944Z,80.33
2022-08-08T05:59:59.869Z,80.02
2022-08-08T06:02:40.968Z,80.18
2022-08-08T06:05:24.513Z,80.07
2022-08-08T06:08:09.417Z,79.80
2022-08-08T06:10:41.640Z,79.68
2022-08-08T06:13:12.507Z,79.82
2022-08-08T06:15:50.621Z,80.04
2022-08-08T06:18:25.883Z,79.71
2022-08-08T06:21:03.636Z,79.37
2022-08-08T06:24:02.321Z,79.56
2022-08-08T06:26:45.501Z,79.58
2022-08-08T06:29:56.619Z,79.21
2022-08-08T06:32:25.482Z,79.05
2022-08-08T06:36:04.442Z,78.87
2022-08-08T06:37:57.574Z,78.60
2022-08-08T06:40:32.153Z,78.25
2022-08-08T06:43:09.616Z,78.01
2022-08-08T06:45:40.092Z,77.92
2022-08-08T06:48:10.128Z,78.11
2022-08-08T06:50:40.851Z,77.57
2022-08-08T06:53:17.341Z,77.53
2022-08-08T06:56:02.712Z,77.21
2022-08-08T06:58:33.067Z,77.21
2022-08-08T07:01:24.340Z,77.08
2022-08-08T07:04:40.370Z,76.79
2022-08-08T07:07:01.310Z,76.63
2022-08-08T07:09:59.805Z,76.21
2022-08-08T07:12:39.825Z,76.10
2022-08-08T07:15:23.058Z,76.12
2022-08-08T07:18:37.114Z,75.36
2022-08-08T07:21:02.204Z,75.19
2022-08-08T07:24:01.426Z,74.71
2022-08-08T07:26:35.525Z,74.02
2022-08-08T07:29:08.311Z,73.81
2022-08-08T07:31:41.879Z,73.14
2022-08-08T07:34:31.606Z,72.45
2022-08-08T07:37:11.818Z,71.96
2022-08-08T07:39:45.552Z,71.77
2022-08-08T07:42:18.999Z,71.74
2022-08-08T07:44:51.267Z,71.22
2022-08-08T07:47:29.015Z,70.77
2022-08-08T07:50:08.420Z,70.30
2022-08-08T07:52:43.801Z,70.06
2022-08-08T07:55:20.050Z,69.78
2022-08-08T07:58:22.266Z,68.82
2022-08-08T08:00:59.965Z,68.43
2022-08-08T08:04:05.284Z,67.80
2022-08-08T08:06:34.661Z,67.82
2022-08-08T08:09:27.379Z,67.76
2022-08-08T08:12:02.637Z,67.45
2022-08-08T08:17:23.199Z,66.92
2022-08-08T08:19:55.797Z,65.83
2022-08-08T08:22:31.481Z,64.90
2022-08-08T08:25:07.444Z,65.25
2022-08-08T08:27:37.132Z,65.66
2022-08-08T08:30:07.308Z,66.03
2022-08-08T08:32:49.382Z,65.86
2022-08-08T08:38:17.205Z,65.11
2022-08-08T08:40:48.767Z,64.12
2022-08-08T08:43:28.904Z,63.79
2022-08-08T08:45:58.313Z,62.27
2022-08-08T08:48:35.295Z,60.68
2022-08-08T08:51:05.879Z,60.05
2022-08-08T08:53:58.932Z,58.95
2022-08-08T08:56:29.326Z,58.68
2022-08-08T08:59:01.202Z,58.28
2022-08-08T09:01:35.355Z,57.95
2022-08-08T09:04:31.233Z,58.29
2022-08-08T09:07:12.096Z,58.53
2022-08-08T09:09:48.336Z,58.44
2022-08-08T09:12:27.357Z,58.34
2022-08-08T09:15:00.137Z,59.01
2022-08-08T09:17:40.683Z,59.27
2022-08-08T09:22:00.863Z,58.96
2022-08-08T09:23:00.605Z,58.73
2022-08-08T09:25:36.038Z,58.94
2022-08-08T09:28:30.799Z,58.89
2022-08-08T09:31:14.451Z,59.80
2022-08-08T09:34:06.341Z,59.91
2022-08-08T09:36:51.432Z,59.54
2022-08-08T09:40:03.397Z,59.85
2022-08-08T09:42:43.705Z,59.87
2022-08-08T09:46:00.613Z,59.80
2022-08-08T09:48:32.477Z,59.89
2022-08-08T09:51:05.613Z,59.83
2022-08-08T09:53:58.989Z,59.98
2022-08-08T09:56:41.089Z,60.14
2022-08-08T09:59:50.390Z,59.85
2022-08-08T10:02:14.603Z,59.49
2022-08-08T10:04:48.345Z,59.29
2022-08-08T10:07:17.606Z,59.20
2022-08-08T10:09:59.499Z,59.57
2022-08-08T10:12:53.125Z,59.17
2022-08-08T10:15:25.673Z,58.99
2022-08-08T10:18:05.447Z,58.64
2022-08-08T10:20:51.120Z,57.92
2022-08-08T10:23:50.841Z,58.68
2022-08-08T10:26:58.776Z,58.78
2022-08-08T10:29:58.929Z,58.57
2022-08-08T10:32:48.300Z,59.24
2022-08-08T10:35:20.620Z,60.02
2022-08-08T10:38:13.482Z,60.78
2022-08-08T10:40:43.384Z,60.16
2022-08-08T10:43:11.872Z,59.23
2022-08-08T10:45:55.920Z,59.29
2022-08-08T10:48:57.639Z,59.63
2022-08-08T10:51:47.170Z,59.50
2022-08-08T10:54:25.268Z,59.05
2022-08-08T10:57:00.449Z,59.09
2022-08-08T10:59:40.025Z,59.03
2022-08-08T11:02:11.042Z,59.19
2022-08-08T11:04:52.882Z,59.73
2022-08-08T11:08:36.841Z,60.01
2022-08-08T11:10:29.201Z,60.41
2022-08-08T11:13:28.983Z,60.49
2022-08-08T11:16:00.289Z,60.40
2022-08-08T11:18:31.858Z,60.70
2022-08-08T11:21:08.828Z,61.16
2022-08-08T11:23:45.166Z,61.23
2022-08-08T11:26:31.387Z,61.78
2022-08-08T11:29:06.902Z,61.75
2022-08-08T11:31:52.110Z,62.03
2022-08-08T11:34:34.498Z,61.93
2022-08-08T11:40:13.263Z,62.84
2022-08-08T11:42:45.316Z,63.04
2022-08-08T11:45:18.261Z,62.92
2022-08-08T11:48:04.508Z,62.88
2022-08-08T11:50:34.404Z,63.30
2022-08-08T11:53:06.622Z,63.35
2022-08-08T11:55:38.108Z,63.45
2022-08-08T11:58:15.252Z,63.46
2022-08-08T12:00:54.378Z,63.73
2022-08-08T12:03:30.890Z,63.69
2022-08-08T12:06:01.982Z,63.73
2022-08-08T12:08:33.463Z,63.67
2022-08-08T12:11:05.516Z,63.83
2022-08-08T12:14:02.844Z,63.88
2022-08-08T12:16:28.275Z,63.98
2022-08-08T12:19:06.158Z,63.99
2022-08-08T12:22:00.637Z,63.94
2022-08-08T12:24:27.958Z,64.02
2022-08-08T12:26:57.086Z,64.07
2022-08-08T12:29:42.543Z,64.27
2022-08-08T12:32:31.149Z,64.30
2022-08-08T12:35:04.467Z,64.22
2022-08-08T12:37:41.048Z,64.49
2022-08-08T12:40:24.694Z,64.63
2022-08-08T12:42:53.916Z,64.69
2022-08-08T12:45:57.987Z,64.91
2022-08-08T12:48:37.485Z,65.29
2022-08-08T12:51:11.362Z,65.34
2022-08-08T12:54:02.291Z,65.82
2022-08-08T12:56:35.221Z,65.67
2022-08-08T12:59:14.976Z,65.99
2022-08-08T13:02:01.753Z,66.21
2022-08-08T13:04:35.954Z,66.13
2022-08-08T13:07:16.739Z,66.72
2022-08-08T13:10:04.320Z,66.66
2022-08-08T13:12:48.245Z,66.88
2022-08-08T13:15:19.988Z,66.96
2022-08-08T13:18:08.046Z,66.95
2022-08-08T13:20:45.131Z,67.24
2022-08-08T13:23:35.797Z,67.46
2022-08-08T13:26:15.692Z,67.48
2022-08-08T13:28:45.710Z,67.78
2022-08-08T13:31:17.357Z,68.53
2022-08-08T13:33:50.281Z,68.56
2022-08-08T13:36:25.897Z,68.42
2022-08-08T13:39:00.587Z,68.65
2022-08-08T13:41:37.946Z,68.30
2022-08-08T13:44:13.813Z,68.44
2022-08-08T13:46:59.294Z,68.50
2022-08-08T13:50:36.585Z,68.46
2022-08-08T13:52:35.841Z,68.48
2022-08-08T13:55:08.981Z,68.42
2022-08-08T13:57:46.293Z,68.71
2022-08-08T14:00:40.610Z,68.86
2022-08-08T14:03:53.033Z,68.96
2022-08-08T14:06:32.115Z,69.18
2022-08-08T14:09:24.610Z,69.29
2022-08-08T14:11:49.612Z,69.51
2022-08-08T14:14:27.124Z,69.83
2022-08-08T14:17:00.662Z,70.67
2022-08-08T14:20:06.497Z,71.67
2022-08-08T14:22:43.993Z,71.99
2022-08-08T14:25:15.290Z,72.09
2022-08-08T14:28:00.200Z,72.19
2022-08-08T14:30:37.221Z,72.31
2022-08-08T14:33:12.806Z,72.47
2022-08-08T14:35:49.637Z,72.70
2022-08-08T14:38:34.723Z,72.53
2022-08-08T14:41:53.246Z,72.18
2022-08-08T14:44:21.049Z,71.86
2022-08-08T14:47:01.279Z,71.58
2022-08-08T14:49:51.367Z,71.60
2022-08-08T14:52:25.171Z,71.40
2022-08-08T14:54:53.117Z,71.47
2022-08-08T14:58:02.244Z,71.51
2022-08-08T15:00:11.513Z,71.69
2022-08-08T15:02:59.033Z,71.28
2022-08-08T15:05:33.986Z,71.61
2022-08-08T15:08:21.731Z,71.65
2022-08-08T15:11:04.276Z,71.64
2022-08-08T15:13:39.772Z,71.80
2022-08-08T15:16:14.458Z,71.74
2022-08-08T15:18:44.271Z,71.93
2022-08-08T15:21:21.106Z,71.84
2022-08-08T15:23:51.081Z,72.08
2022-08-08T15:26:25.670Z,72.37
2022-08-08T15:28:57.106Z,72.11
2022-08-08T15:31:55.731Z,72.35
2022-08-08T15:34:29.618Z,72.29
2022-08-08T15:37:03.122Z,72.67
2022-08-08T15:39:39.463Z,72.86
2022-08-08T15:42:13.263Z,72.96
2022-08-08T15:44:56.866Z,73.07
2022-08-08T15:47:24.655Z,72.91
2022-08-08T15:49:53.825Z,72.82
2022-08-08T15:52:24.992Z,72.86
2022-08-08T15:54:54.658Z,73.23
2022-08-08T15:57:23.737Z,73.28
2022-08-08T16:00:06.075Z,73.53
2022-08-08T16:02:44.115Z,73.45
2022-08-08T16:05:23.586Z,73.49
2022-08-08T16:07:54.220Z,73.29
2022-08-08T16:13:09.300Z,73.62
2022-08-08T16:13:30.753Z,73.67
2022-08-08T16:16:16.418Z,73.79
2022-08-08T16:18:57.908Z,73.57
2022-08-08T16:21:27.569Z,73.73
2022-08-08T16:23:56.615Z,73.82
2022-08-08T16:26:33.942Z,73.67
2022-08-08T16:29:07.994Z,73.73
2022-08-08T16:31:41.443Z,73.68
2022-08-08T16:34:16.838Z,73.39
2022-08-08T16:36:49.399Z,73.37
2022-08-08T16:39:59.854Z,73.54
2022-08-08T16:42:13.950Z,73.54
2022-08-08T16:44:55.209Z,73.44
2022-08-08T16:47:40.671Z,73.54
2022-08-08T16:50:15.121Z,73.51
2022-08-08T16:54:59.755Z,73.34
2022-08-08T16:55:52.677Z,73.36
2022-08-08T16:58:25.367Z,73.25
2022-08-08T17:00:58.949Z,73.52
2022-08-08T17:03:58.898Z,73.27
2022-08-08T17:06:37.008Z,73.44
2022-08-08T17:09:07.116Z,73.37
2022-08-08T17:11:48.672Z,73.39
2022-08-08T17:14:27.178Z,73.41
2022-08-08T17:17:01.374Z,73.45
2022-08-08T17:19:31.920Z,73.34
2022-08-08T17:22:12.550Z,73.41
2022-08-08T17:24:40.557Z,73.32
2022-08-08T17:27:08.621Z,73.58
2022-08-08T17:29:43.498Z,73.43
2022-08-08T17:32:28.915Z,73.50
2022-08-08T17:35:54.697Z,73.38
2022-08-08T17:37:53.453Z,73.55
2022-08-08T17:40:22.283Z,73.56
2022-08-08T17:42:51.720Z,73.67
2022-08-08T17:45:22.771Z,73.55
2022-08-08T17:47:54.731Z,73.65
2022-08-08T17:50:24.291Z,73.66
2022-08-08T17:52:54.017Z,73.55
2022-08-08T17:56:06.148Z,73.72
2022-08-08T17:58:14.850Z,73.51
2022-08-08T18:00:42.982Z,73.73
2022-08-08T18:03:15.656Z,73.78
2022-08-08T18:05:50.058Z,73.73
2022-08-08T18:08:40.904Z,73.59
2022-08-08T18:11:14.670Z,73.76
2022-08-08T18:13:45.771Z,73.94
2022-08-08T18:16:20.634Z,74.00
2022-08-08T18:19:11.247Z,74.08
2022-08-08T18:22:01.840Z,73.93
2022-08-08T18:24:32.004Z,73.92
2022-08-08T18:27:06.221Z,73.87
2022-08-08T18:29:45.813Z,74.09
2022-08-08T18:32:16.861Z,74.08
2022-08-08T18:34:49.619Z,74.08
2022-08-08T18:37:33.555Z,74.04
2022-08-08T18:40:05.557Z,74.05
2022-08-08T18:42:45.782Z,74.14
2022-08-08T18:46:00.971Z,74.23
2022-08-08T18:48:09.448Z,74.24
2022-08-08T18:50:39.507Z,74.31
2022-08-08T18:55:53.647Z,74.44
2022-08-08T18:58:23.331Z,74.39
2022-08-08T19:00:51.599Z,74.38
2022-08-08T19:04:05.147Z,74.64
2022-08-08T19:06:28.936Z,74.50
2022-08-08T19:08:58.501Z,74.59
2022-08-08T19:11:26.999Z,74.68
2022-08-08T19:14:01.240Z,74.48
2022-08-08T19:16:32.140Z,74.72
2022-08-08T19:19:02.953Z,74.97
2022-08-08T19:21:49.194Z,75.29
2022-08-08T19:24:42.418Z,74.94
2022-08-08T19:27:08.509Z,74.91
2022-08-08T19:29:42.284Z,74.74
2022-08-08T19:32:21.923Z,75.04
2022-08-08T19:34:52.048Z,75.00
2022-08-08T19:37:43.226Z,75.30
2022-08-08T19:40:16.471Z,75.28
2022-08-08T19:42:48.076Z,75.36
2022-08-08T19:45:58.205Z,75.59
2022-08-08T19:48:28.711Z,75.88
2022-08-08T19:51:00.908Z,75.51
2022-08-08T19:53:51.302Z,75.91
2022-08-08T19:56:25.489Z,75.71
2022-08-08T19:59:09.019Z,75.97
2022-08-08T20:02:02.267Z,75.88
2022-08-08T20:04:28.107Z,76.11
2022-08-08T20:07:03.610Z,76.06
2022-08-08T20:09:36.335Z,76.17
2022-08-08T20:12:14.111Z,76.09
2022-08-08T20:14:51.776Z,75.98
2022-08-08T20:17:27.698Z,76.34
2022-08-08T20:19:56.324Z,76.30
2022-08-08T20:22:26.525Z,76.36
2022-08-08T20:25:00.292Z,76.38
2022-08-08T20:27:43.643Z,76.44
2022-08-08T20:30:52.475Z,76.53
2022-08-08T20:33:08.158Z,76.34
2022-08-08T20:35:56.877Z,76.44
2022-08-08T20:38:32.538Z,76.55
2022-08-08T20:41:05.821Z,76.58
2022-08-08T20:43:50.053Z,76.74
2022-08-08T20:46:25.443Z,76.76
2022-08-08T20:48:59.860Z,76.82
2022-08-08T20:51:32.361Z,76.77
2022-08-08T20:54:13.815Z,76.94
2022-08-08T20:57:04.816Z,76.99
2022-08-08T20:59:41.354Z,76.80
2022-08-08T21:02:12.779Z,77.10
2022-08-08T21:04:50.315Z,77.03
2022-08-08T21:07:47.150Z,76.98
2022-08-08T21:10:13.129Z,77.09
2022-08-08T21:12:46.111Z,77.24
2022-08-08T21:15:16.508Z,77.38
2022-08-08T21:18:05.248Z,77.52
2022-08-08T21:20:34.569Z,77.57
2022-08-08T21:23:05.313Z,77.65
2022-08-08T21:25:38.475Z,77.66
2022-08-08T21:28:14.847Z,77.76
2022-08-08T21:30:49.690Z,77.77
2022-08-08T21:33:21.486Z,78.08
2022-08-08T21:36:14.716Z,77.88
2022-08-08T21:38:38.334Z,78.10
2022-08-08T21:41:07.242Z,77.99
2022-08-08T21:43:36.453Z,78.26
2022-08-08T21:48:02.607Z,77.88
2022-08-08T21:48:56.784Z,78.11
2022-08-08T21:54:16.871Z,77.89
2022-08-08T21:54:53.933Z,78.01
2022-08-08T21:57:09.466Z,77.95
2022-08-08T22:00:03.310Z,78.29
2022-08-08T22:02:27.322Z,78.24
2022-08-08T22:04:59.264Z,78.33
2022-08-08T22:07:39.478Z,78.47
2022-08-08T22:10:18.225Z,78.43
2022-08-08T22:13:18.472Z,78.32
2022-08-08T22:15:59.136Z,78.53
2022-08-08T22:18:35.695Z,78.42
2022-08-08T22:21:14.086Z,78.34
2022-08-08T22:23:51.206Z,78.31
2022-08-08T22:26:29.090Z,78.12
2022-08-08T22:29:14.711Z,78.41
2022-08-08T22:31:58.636Z,78.41
2022-08-08T22:34:32.021Z,78.44
2022-08-08T22:36:59.874Z,78.41
2022-08-08T22:39:45.607Z,78.53
2022-08-08T22:42:23.956Z,78.95
2022-08-08T22:44:52.443Z,78.89
2022-08-08T22:47:20.417Z,79.01
2022-08-08T22:49:54.217Z,79.27
2022-08-08T22:52:35.641Z,79.55
2022-08-08T22:55:06.075Z,80.01
2022-08-08T22:57:44.070Z,79.77
2022-08-08T23:00:18.155Z,80.21
2022-08-08T23:02:49.984Z,80.14
2022-08-08T23:05:21.275Z,80.28
2022-08-08T23:07:57.822Z,80.32
2022-08-08T23:10:27.928Z,80.53
2022-08-08T23:12:58.928Z,80.66
2022-08-08T23:16:38.330Z,80.62
2022-08-08T23:18:16.659Z,80.58
2022-08-08T23:20:45.389Z,80.60
2022-08-08T23:23:22.919Z,80.34
2022-08-08T23:25:50.891Z,80.23
2022-08-08T23:28:20.857Z,80.27
2022-08-08T23:30:48.768Z,79.87
2022-08-08T23:33:20.996Z,79.64
2022-08-08T23:36:09.225Z,79.79
2022-08-08T23:38:44.540Z,79.59
2022-08-08T23:41:25.236Z,79.45
2022-08-08T23:43:58.096Z,79.66
2022-08-08T23:49:07.322Z,79.29
2022-08-08T23:49:22.438Z,79.24
2022-08-08T23:52:06.471Z,79.27
2022-08-08T23:54:41.829Z,79.05
2022-08-08T23:57:27.195Z,78.85
